Time;durP1;ratioP1;P1;durP2;ratioP2;P2;SDS_P1;SDS_P2;PMS_P1;PMS_P2;Temp;Humidity;BMP_temperature;BMP_pressure;BME280_temperature;BME280_humidity;BME280_pressure;Samples;Min_cycle;Max_cycle;Signal;HPM_P1;HPM_P2
2022/02/12 00:02:23;;;;;;;19.35;4.43;;;;;;;;;;5039859;28;20042;-59
2022/02/12 00:04:49;;;;;;;17.80;3.90;;;;;;;;;;5076649;28;20059;-59
2022/02/12 00:07:16;;;;;;;22.80;4.68;;;;;;;;;;5045864;28;20045;-59
2022/02/12 00:09:42;;;;;;;15.50;4.00;;;;;;;;;;5044752;28;20032;-59
2022/02/12 00:12:08;;;;;;;21.85;3.55;;;;;;;;;;5047562;28;20566;-59
2022/02/12 00:14:34;;;;;;;24.27;5.57;;;;;;;;;;5046889;28;20067;-59
2022/02/12 00:17:00;;;;;;;19.42;4.45;;;;;;;;;;5042043;28;20132;-59
2022/02/12 00:19:26;;;;;;;19.83;3.55;;;;;;;;;;5042551;28;20574;-59
2022/02/12 00:21:52;;;;;;;14.52;3.92;;;;;;;;;;5042864;28;20144;-59
2022/02/12 00:24:19;;;;;;;15.80;3.90;;;;;;;;;;5037901;28;20041;-59
2022/02/12 00:26:45;;;;;;;13.93;3.50;;;;;;;;;;5040517;28;20447;-59
2022/02/12 00:29:11;;;;;;;14.77;3.33;;;;;;;;;;5046589;28;20033;-59
2022/02/12 00:31:37;;;;;;;26.92;4.55;;;;;;;;;;5077356;28;20037;-59
2022/02/12 00:34:03;;;;;;;15.02;3.60;;;;;;;;;;5047617;28;20072;-60
2022/02/12 00:36:29;;;;;;;24.45;4.82;;;;;;;;;;5047156;28;20045;-60
2022/02/12 00:38:55;;;;;;;17.48;4.00;;;;;;;;;;5044857;28;20068;-59
2022/02/12 00:41:21;;;;;;;19.17;3.90;;;;;;;;;;5051337;28;20405;-59
2022/02/12 00:43:48;;;;;;;15.77;5.20;;;;;;;;;;5038717;28;20135;-59
2022/02/12 00:46:14;;;;;;;20.42;6.68;;;;;;;;;;5045249;28;20033;-59
2022/02/12 00:48:40;;;;;;;17.45;5.28;;;;;;;;;;5041133;28;20037;-59
2022/02/12 00:51:06;;;;;;;21.17;4.45;;;;;;;;;;5046651;28;20063;-59
2022/02/12 00:53:32;;;;;;;15.45;5.10;;;;;;;;;;5047202;28;20049;-59
2022/02/12 00:55:58;;;;;;;15.18;4.25;;;;;;;;;;5068867;28;20405;-59
2022/02/12 00:58:24;;;;;;;23.52;5.55;;;;;;;;;;5047251;28;20094;-59
2022/02/12 01:00:51;;;;;;;19.70;4.90;;;;;;;;;;5036872;28;20143;-59
2022/02/12 01:03:17;;;;;;;23.48;5.50;;;;;;;;;;5036237;28;20102;-59
2022/02/12 01:05:43;;;;;;;18.05;5.75;;;;;;;;;;5040672;28;20083;-59
2022/02/12 01:08:09;;;;;;;22.15;4.72;;;;;;;;;;5045353;28;20048;-59
2022/02/12 01:10:36;;;;;;;14.27;4.15;;;;;;;;;;5046254;28;20154;-59
2022/02/12 01:13:02;;;;;;;17.70;4.70;;;;;;;;;;5053416;28;20041;-59
2022/02/12 01:15:29;;;;;;;16.42;4.85;;;;;;;;;;5043103;28;20128;-59
2022/02/12 01:17:55;;;;;;;23.48;5.30;;;;;;;;;;5075117;28;20059;-59
2022/02/12 01:20:21;;;;;;;15.55;5.15;;;;;;;;;;5038073;28;20452;-60
2022/02/12 01:22:48;;;;;;;18.48;6.47;;;;;;;;;;5040472;28;20052;-59
2022/02/12 01:25:15;;;;;;;18.35;6.97;;;;;;;;;;5047148;28;20045;-59
2022/02/12 01:27:41;;;;;;;16.88;5.00;;;;;;;;;;5041870;28;20045;-59
2022/02/12 01:30:08;;;;;;;28.52;6.60;;;;;;;;;;5046110;28;20044;-59
2022/02/12 01:32:35;;;;;;;23.90;6.65;;;;;;;;;;5034592;28;20473;-59
2022/02/12 01:35:01;;;;;;;20.42;5.38;;;;;;;;;;5036106;28;20038;-59
2022/02/12 01:37:27;;;;;;;19.65;4.80;;;;;;;;;;5035787;28;20411;-59
2022/02/12 01:39:53;;;;;;;17.73;5.55;;;;;;;;;;5036896;28;20037;-59
2022/02/12 01:42:20;;;;;;;22.48;4.75;;;;;;;;;;5034348;28;20378;-59
2022/02/12 01:44:47;;;;;;;25.70;5.55;;;;;;;;;;5046890;28;20055;-59
2022/02/12 01:47:14;;;;;;;20.08;4.35;;;;;;;;;;5047208;28;20136;-59
2022/02/12 01:49:40;;;;;;;20.13;4.40;;;;;;;;;;5042459;28;20470;-59
2022/02/12 01:52:08;;;;;;;21.55;4.85;;;;;;;;;;5043401;28;20041;-59
2022/02/12 01:54:34;;;;;;;19.70;4.55;;;;;;;;;;5041177;28;20052;-59
2022/02/12 01:57:02;;;;;;;12.38;4.30;;;;;;;;;;5048078;28;20064;-59
2022/02/12 01:59:28;;;;;;;15.27;4.50;;;;;;;;;;5071062;28;20438;-59
2022/02/12 02:01:55;;;;;;;21.02;4.00;;;;;;;;;;5040806;28;20123;-59
2022/02/12 02:04:21;;;;;;;18.23;5.28;;;;;;;;;;5039846;28;20041;-59
2022/02/12 02:06:47;;;;;;;24.40;4.55;;;;;;;;;;5038960;28;20123;-59
2022/02/12 02:09:16;;;;;;;14.63;5.10;;;;;;;;;;5038410;28;20060;-59
2022/02/12 02:11:42;;;;;;;22.70;4.63;;;;;;;;;;5036485;28;20045;-59
2022/02/12 02:14:10;;;;;;;25.70;4.88;;;;;;;;;;5038918;28;20176;-59
2022/02/12 02:16:36;;;;;;;15.32;4.03;;;;;;;;;;5040677;28;20120;-59
2022/02/12 02:19:03;;;;;;;20.23;4.78;;;;;;;;;;5035814;28;20508;-59
2022/02/12 02:21:29;;;;;;;20.15;5.32;;;;;;;;;;5041038;28;20036;-59
2022/02/12 02:23:55;;;;;;;18.00;5.10;;;;;;;;;;5037358;28;20060;-59
2022/02/12 02:26:21;;;;;;;15.52;4.85;;;;;;;;;;5041372;28;20049;-60
2022/02/12 02:28:48;;;;;;;14.98;4.57;;;;;;;;;;5040590;28;20045;-59
2022/02/12 02:31:14;;;;;;;16.13;3.65;;;;;;;;;;5040576;28;20042;-59
2022/02/12 02:33:40;;;;;;;23.70;4.18;;;;;;;;;;5038605;28;20129;-59
2022/02/12 02:36:07;;;;;;;18.80;4.20;;;;;;;;;;5048128;28;20041;-60
2022/02/12 02:38:33;;;;;;;15.20;3.25;;;;;;;;;;5039850;28;20045;-59
2022/02/12 02:40:59;;;;;;;14.57;3.15;;;;;;;;;;5038649;28;20046;-59
2022/02/12 02:43:25;;;;;;;15.55;3.78;;;;;;;;;;5039534;28;20112;-59
2022/02/12 02:45:52;;;;;;;11.90;3.17;;;;;;;;;;5039677;28;20112;-59
2022/02/12 02:48:18;;;;;;;13.07;3.10;;;;;;;;;;5040675;28;20041;-59
2022/02/12 02:56:14;;;;;;;15.85;4.22;;;;;;;;;;5046984;28;20503;-59
2022/02/12 02:58:41;;;;;;;16.83;3.90;;;;;;;;;;5038479;28;20441;-59
2022/02/12 03:01:12;;;;;;;9.80;3.53;;;;;;;;;;5036848;28;20432;-59
2022/02/12 03:03:39;;;;;;;25.00;5.43;;;;;;;;;;5038976;28;20045;-59
2022/02/12 03:06:06;;;;;;;14.55;4.68;;;;;;;;;;5042228;28;20053;-59
2022/02/12 03:08:32;;;;;;;16.55;4.10;;;;;;;;;;5041856;28;20158;-59
2022/02/12 03:10:59;;;;;;;18.67;5.72;;;;;;;;;;5037358;28;20484;-59
2022/02/12 03:13:25;;;;;;;16.70;4.57;;;;;;;;;;5035501;28;20054;-59
2022/02/12 03:15:52;;;;;;;15.18;3.90;;;;;;;;;;5040379;28;20072;-59
2022/02/12 03:18:18;;;;;;;11.82;3.53;;;;;;;;;;5033712;28;20038;-59
2022/02/12 03:20:44;;;;;;;15.70;4.72;;;;;;;;;;5068159;28;20051;-59
2022/02/12 03:23:10;;;;;;;23.67;4.57;;;;;;;;;;5041600;28;20126;-59
2022/02/12 03:25:37;;;;;;;14.32;4.10;;;;;;;;;;5039010;28;20045;-59
2022/02/12 03:28:04;;;;;;;15.90;4.40;;;;;;;;;;5043582;28;20059;-59
2022/02/12 03:30:32;;;;;;;13.65;4.55;;;;;;;;;;5040456;28;20041;-59
2022/02/12 03:32:58;;;;;;;20.20;4.78;;;;;;;;;;5040059;28;20038;-59
2022/02/12 03:35:30;;;;;;;18.73;4.72;;;;;;;;;;5047705;28;20044;-59
2022/02/12 03:38:06;;;;;;;20.58;5.22;;;;;;;;;;5045914;28;20033;-59
2022/02/12 03:40:32;;;;;;;19.52;5.18;;;;;;;;;;5047194;28;20048;-59
2022/02/12 03:42:58;;;;;;;13.18;4.80;;;;;;;;;;5047591;28;20403;-59
2022/02/12 03:45:24;;;;;;;19.80;5.15;;;;;;;;;;5042285;28;20515;-59
2022/02/12 03:47:50;;;;;;;18.60;5.32;;;;;;;;;;5040613;28;20128;-58
2022/02/12 03:50:17;;;;;;;24.15;6.90;;;;;;;;;;5042547;28;20366;-59
2022/02/12 03:52:43;;;;;;;16.13;5.95;;;;;;;;;;5042702;28;20046;-60
2022/02/12 03:55:09;;;;;;;15.52;5.70;;;;;;;;;;5049772;28;20083;-59
2022/02/12 03:57:36;;;;;;;29.65;6.60;;;;;;;;;;5041691;28;20049;-59
2022/02/12 04:00:05;;;;;;;17.27;5.78;;;;;;;;;;5045482;28;20413;-59
2022/02/12 04:02:31;;;;;;;16.75;5.10;;;;;;;;;;5041234;28;20037;-59
2022/02/12 04:04:58;;;;;;;21.23;5.72;;;;;;;;;;5044467;28;20048;-59
2022/02/12 04:07:24;;;;;;;20.65;5.63;;;;;;;;;;5045611;28;20036;-59
2022/02/12 04:09:50;;;;;;;20.42;4.68;;;;;;;;;;5047064;28;20186;-59
2022/02/12 04:12:16;;;;;;;17.05;5.38;;;;;;;;;;5044292;28;20056;-59
2022/02/12 04:14:42;;;;;;;17.23;5.43;;;;;;;;;;5048963;28;20060;-59
2022/02/12 04:17:08;;;;;;;18.63;4.53;;;;;;;;;;5073354;28;20527;-59
2022/02/12 04:19:34;;;;;;;26.58;5.18;;;;;;;;;;5036797;28;20034;-58
2022/02/12 04:22:00;;;;;;;16.60;3.90;;;;;;;;;;5073020;28;20052;-59
2022/02/12 04:24:27;;;;;;;20.35;4.72;;;;;;;;;;5042611;28;20045;-59
2022/02/12 04:26:53;;;;;;;27.20;4.97;;;;;;;;;;5041980;28;20395;-59
2022/02/12 04:29:19;;;;;;;13.55;4.20;;;;;;;;;;5043092;28;20041;-59
2022/02/12 04:31:45;;;;;;;23.20;3.90;;;;;;;;;;5047630;28;20444;-59
2022/02/12 04:34:11;;;;;;;22.67;6.15;;;;;;;;;;5037169;28;20165;-59
2022/02/12 04:36:37;;;;;;;16.65;4.40;;;;;;;;;;5042634;28;20052;-59
2022/02/12 04:39:03;;;;;;;21.23;4.88;;;;;;;;;;5051485;28;20118;-58
2022/02/12 04:41:30;;;;;;;22.42;5.72;;;;;;;;;;5041318;28;20037;-59
2022/02/12 04:43:56;;;;;;;19.70;5.15;;;;;;;;;;5037996;28;20037;-59
2022/02/12 04:46:22;;;;;;;15.65;4.32;;;;;;;;;;5048488;28;20500;-59
2022/02/12 04:48:49;;;;;;;19.85;4.28;;;;;;;;;;5040922;28;20041;-59
2022/02/12 04:51:16;;;;;;;20.45;3.80;;;;;;;;;;5044053;28;20045;-59
2022/02/12 04:53:43;;;;;;;13.35;3.80;;;;;;;;;;5042484;28;20080;-59
2022/02/12 04:56:09;;;;;;;16.90;3.58;;;;;;;;;;5035608;28;20049;-59
2022/02/12 04:58:35;;;;;;;14.90;4.60;;;;;;;;;;5039692;28;20041;-59
2022/02/12 05:01:01;;;;;;;16.13;4.60;;;;;;;;;;5040236;28;20060;-59
2022/02/12 05:03:27;;;;;;;16.70;3.72;;;;;;;;;;5041113;28;20045;-59
2022/02/12 05:05:53;;;;;;;14.38;4.00;;;;;;;;;;5049019;28;20045;-59
2022/02/12 05:08:20;;;;;;;15.85;3.88;;;;;;;;;;5040168;28;20097;-59
2022/02/12 05:10:46;;;;;;;13.18;3.67;;;;;;;;;;5042080;28;20036;-59
2022/02/12 05:13:12;;;;;;;19.75;3.70;;;;;;;;;;5044805;28;20033;-59
2022/02/12 05:15:38;;;;;;;12.52;3.55;;;;;;;;;;5044845;28;20054;-59
2022/02/12 05:18:04;;;;;;;18.15;3.90;;;;;;;;;;5050339;28;20212;-59
2022/02/12 05:20:30;;;;;;;17.13;4.50;;;;;;;;;;5041068;28;20400;-59
2022/02/12 05:22:56;;;;;;;14.73;3.42;;;;;;;;;;5036189;28;20087;-59
2022/02/12 05:25:23;;;;;;;18.73;4.90;;;;;;;;;;5045826;28;20128;-59
2022/02/12 05:27:49;;;;;;;26.27;5.20;;;;;;;;;;5032517;28;20473;-59
2022/02/12 05:30:15;;;;;;;14.98;3.80;;;;;;;;;;5039934;28;20045;-59
2022/02/12 05:32:41;;;;;;;15.07;4.15;;;;;;;;;;5040409;28;20094;-59
2022/02/12 05:35:07;;;;;;;14.38;3.97;;;;;;;;;;5044642;28;20089;-59
2022/02/12 05:37:33;;;;;;;20.50;7.15;;;;;;;;;;5037892;28;20087;-59
2022/02/12 05:40:00;;;;;;;17.85;5.05;;;;;;;;;;5044463;28;20499;-59
2022/02/12 05:42:26;;;;;;;17.45;4.75;;;;;;;;;;5046474;28;20041;-60
2022/02/12 05:44:53;;;;;;;22.98;5.05;;;;;;;;;;5039889;28;20037;-59
2022/02/12 05:47:20;;;;;;;23.55;4.70;;;;;;;;;;5044363;28;20099;-59
2022/02/12 05:49:46;;;;;;;17.90;5.70;;;;;;;;;;5045476;28;20045;-59
2022/02/12 05:52:12;;;;;;;18.30;5.00;;;;;;;;;;5044673;28;20056;-60
2022/02/12 05:54:38;;;;;;;24.38;5.20;;;;;;;;;;5058301;28;20084;-58
2022/02/12 05:57:04;;;;;;;22.80;5.45;;;;;;;;;;5044283;28;20481;-59
2022/02/12 05:59:30;;;;;;;15.95;5.20;;;;;;;;;;5038216;28;20103;-59
2022/02/12 06:01:57;;;;;;;19.52;4.82;;;;;;;;;;5038356;28;20045;-59
2022/02/12 06:04:23;;;;;;;18.20;5.30;;;;;;;;;;5041599;28;20044;-59
2022/02/12 06:06:49;;;;;;;17.40;5.03;;;;;;;;;;5041811;28;20396;-59
2022/02/12 06:09:15;;;;;;;25.10;5.03;;;;;;;;;;5044742;28;20045;-59
2022/02/12 06:11:41;;;;;;;20.42;5.63;;;;;;;;;;5074652;28;20045;-59
2022/02/12 06:14:07;;;;;;;24.58;6.18;;;;;;;;;;5043121;28;20392;-59
2022/02/12 06:16:34;;;;;;;18.40;4.72;;;;;;;;;;5074881;28;20485;-59
2022/02/12 06:19:00;;;;;;;16.17;4.18;;;;;;;;;;5042389;28;20528;-59
2022/02/12 06:21:26;;;;;;;17.13;4.72;;;;;;;;;;5040172;28;20106;-60
2022/02/12 06:23:52;;;;;;;16.95;4.47;;;;;;;;;;5045335;28;20110;-59
2022/02/12 06:26:18;;;;;;;22.20;6.68;;;;;;;;;;5033670;28;20116;-59
2022/02/12 06:28:44;;;;;;;16.58;5.25;;;;;;;;;;5032579;28;20037;-59
2022/02/12 06:31:11;;;;;;;20.85;5.30;;;;;;;;;;5034890;28;20107;-59
2022/02/12 06:33:37;;;;;;;26.08;5.65;;;;;;;;;;5066866;28;20055;-59
2022/02/12 06:36:03;;;;;;;16.30;4.70;;;;;;;;;;5039503;28;20157;-59
2022/02/12 06:38:29;;;;;;;13.73;4.72;;;;;;;;;;5040338;28;20401;-59
2022/02/12 06:40:56;;;;;;;13.75;4.93;;;;;;;;;;5042169;28;20073;-59
2022/02/12 06:43:22;;;;;;;21.08;5.47;;;;;;;;;;5042343;28;20042;-60
2022/02/12 06:45:48;;;;;;;17.60;4.35;;;;;;;;;;5074179;28;20511;-59
2022/02/12 06:48:15;;;;;;;18.20;5.15;;;;;;;;;;5039035;28;20152;-59
2022/02/12 06:50:41;;;;;;;22.48;5.32;;;;;;;;;;5036853;28;20037;-59
2022/02/12 06:53:07;;;;;;;14.55;5.22;;;;;;;;;;5042150;28;21749;-59
2022/02/12 06:55:33;;;;;;;13.57;4.60;;;;;;;;;;5042958;28;20155;-59
2022/02/12 06:58:00;;;;;;;20.98;4.57;;;;;;;;;;5045294;28;20037;-59
2022/02/12 07:00:28;;;;;;;19.33;4.53;;;;;;;;;;5041473;28;20052;-59
2022/02/12 07:02:54;;;;;;;19.33;5.63;;;;;;;;;;5037045;28;20374;-59
2022/02/12 07:05:20;;;;;;;22.23;5.88;;;;;;;;;;5034919;28;20433;-59
2022/02/12 07:07:48;;;;;;;12.10;4.55;;;;;;;;;;5040344;28;20044;-73
2022/02/12 07:10:14;;;;;;;18.13;5.35;;;;;;;;;;5064900;28;20159;-60
2022/02/12 07:12:40;;;;;;;21.67;6.10;;;;;;;;;;5044846;28;20408;-59
2022/02/12 07:15:08;;;;;;;19.02;5.65;;;;;;;;;;5044092;28;20087;-59
2022/02/12 07:17:39;;;;;;;21.30;5.07;;;;;;;;;;5042172;28;20037;-60
2022/02/12 07:20:06;;;;;;;20.75;5.85;;;;;;;;;;5042922;28;20045;-59
2022/02/12 07:22:32;;;;;;;17.05;6.25;;;;;;;;;;5081558;28;20041;-59
2022/02/12 07:24:58;;;;;;;16.75;4.78;;;;;;;;;;5052194;28;20120;-59
2022/02/12 07:27:24;;;;;;;14.43;5.18;;;;;;;;;;5052023;28;20095;-59
2022/02/12 07:29:50;;;;;;;17.60;5.22;;;;;;;;;;5037390;28;20037;-59
2022/02/12 07:32:17;;;;;;;20.65;7.05;;;;;;;;;;5041162;28;20037;-60
2022/02/12 07:34:43;;;;;;;29.15;5.43;;;;;;;;;;5042933;28;20378;-59
2022/02/12 07:37:09;;;;;;;25.33;5.75;;;;;;;;;;5041450;28;20180;-59
2022/02/12 07:39:35;;;;;;;14.00;4.32;;;;;;;;;;5040958;28;20084;-59
2022/02/12 07:42:01;;;;;;;22.45;5.80;;;;;;;;;;5039847;28;20041;-60
2022/02/12 07:44:28;;;;;;;11.95;4.10;;;;;;;;;;5039980;28;20037;-60
2022/02/12 07:46:54;;;;;;;20.52;4.55;;;;;;;;;;5040347;28;20052;-59
2022/02/12 07:49:20;;;;;;;18.10;4.47;;;;;;;;;;5036669;28;20125;-59
2022/02/12 07:51:46;;;;;;;14.30;3.88;;;;;;;;;;5043545;28;20049;-59
2022/02/12 07:54:13;;;;;;;17.48;4.68;;;;;;;;;;5045616;28;20080;-60
2022/02/12 07:56:40;;;;;;;24.90;5.13;;;;;;;;;;5035269;28;20454;-60
2022/02/12 07:59:06;;;;;;;29.75;5.50;;;;;;;;;;5034627;28;20041;-59
2022/02/12 08:01:32;;;;;;;14.77;4.40;;;;;;;;;;5039256;28;20044;-60
2022/02/12 08:03:59;;;;;;;24.77;5.45;;;;;;;;;;5042810;28;20105;-59
2022/02/12 08:09:10;;;;;;;19.25;4.45;;;;;;;;;;5036242;28;20033;-60
2022/02/12 08:11:38;;;;;;;17.08;6.13;;;;;;;;;;5041603;28;20059;-59
2022/02/12 08:14:05;;;;;;;18.45;5.45;;;;;;;;;;5042427;28;20497;-59
2022/02/12 08:16:31;;;;;;;13.50;4.05;;;;;;;;;;5046498;28;20081;-59
2022/02/12 08:18:57;;;;;;;27.13;5.78;;;;;;;;;;5040089;28;20060;-60
2022/02/12 08:21:23;;;;;;;23.15;4.88;;;;;;;;;;5045809;28;20045;-60
2022/02/12 08:23:50;;;;;;;25.98;5.53;;;;;;;;;;5043381;28;20113;-60
2022/02/12 08:26:16;;;;;;;19.88;5.20;;;;;;;;;;5041595;28;20041;-59
2022/02/12 08:28:42;;;;;;;17.80;5.38;;;;;;;;;;5037877;28;20045;-59
2022/02/12 08:31:09;;;;;;;20.23;5.10;;;;;;;;;;5037436;28;20049;-61
2022/02/12 08:33:35;;;;;;;39.70;7.15;;;;;;;;;;5048974;28;20092;-60
2022/02/12 08:36:01;;;;;;;22.05;5.28;;;;;;;;;;5043070;28;20373;-60
2022/02/12 08:38:27;;;;;;;33.38;6.78;;;;;;;;;;5044533;28;20033;-60
2022/02/12 08:40:55;;;;;;;19.35;5.57;;;;;;;;;;5044162;28;20414;-60
2022/02/12 08:43:21;;;;;;;26.92;5.72;;;;;;;;;;5047117;28;20049;-60
2022/02/12 08:45:47;;;;;;;23.50;6.07;;;;;;;;;;5044766;28;20045;-61
2022/02/12 08:48:14;;;;;;;18.80;6.22;;;;;;;;;;5044503;28;20045;-60
2022/02/12 08:50:40;;;;;;;27.13;6.57;;;;;;;;;;5044819;28;20049;-60
2022/02/12 08:53:06;;;;;;;25.25;8.05;;;;;;;;;;5043847;28;20136;-60
2022/02/12 08:55:32;;;;;;;25.88;8.13;;;;;;;;;;5042700;28;20060;-60
2022/02/12 08:57:58;;;;;;;29.13;9.30;;;;;;;;;;5040775;28;20104;-60
2022/02/12 09:00:25;;;;;;;24.33;8.50;;;;;;;;;;5042174;28;20184;-60
2022/02/12 09:02:52;;;;;;;24.23;8.38;;;;;;;;;;5042925;28;20037;-60
2022/02/12 09:05:20;;;;;;;26.33;8.10;;;;;;;;;;5041672;28;20048;-60
2022/02/12 09:07:46;;;;;;;21.33;7.32;;;;;;;;;;5041509;28;20052;-60
2022/02/12 09:10:13;;;;;;;26.80;9.20;;;;;;;;;;5041796;28;20048;-60
2022/02/12 09:12:39;;;;;;;33.83;10.68;;;;;;;;;;5042409;28;20037;-60
2022/02/12 09:15:07;;;;;;;34.05;8.93;;;;;;;;;;5042943;28;20552;-60
2022/02/12 09:17:33;;;;;;;32.55;10.10;;;;;;;;;;5044433;28;20064;-60
2022/02/12 09:20:00;;;;;;;36.85;9.27;;;;;;;;;;5042832;28;20037;-60
2022/02/12 09:22:26;;;;;;;34.28;9.15;;;;;;;;;;5042768;28;20106;-60
2022/02/12 09:24:52;;;;;;;29.58;9.23;;;;;;;;;;5044436;28;20107;-60
2022/02/12 09:27:20;;;;;;;33.90;10.50;;;;;;;;;;5044353;28;20049;-60
2022/02/12 09:29:46;;;;;;;26.13;11.35;;;;;;;;;;5043710;28;20044;-61
2022/02/12 09:32:14;;;;;;;27.50;7.57;;;;;;;;;;5042423;28;20132;-60
2022/02/12 09:34:41;;;;;;;23.80;8.18;;;;;;;;;;5043194;28;20466;-60
2022/02/12 09:37:07;;;;;;;18.58;6.93;;;;;;;;;;5040701;28;20048;-60
2022/02/12 09:39:33;;;;;;;30.63;7.93;;;;;;;;;;5042478;28;20151;-60
2022/02/12 09:41:59;;;;;;;23.50;7.18;;;;;;;;;;5042507;28;20049;-60
2022/02/12 09:44:25;;;;;;;24.23;7.38;;;;;;;;;;5042833;28;20051;-60
2022/02/12 09:47:04;;;;;;;25.67;8.20;;;;;;;;;;5044595;28;20049;-59
2022/02/12 09:49:30;;;;;;;27.08;8.65;;;;;;;;;;5042864;28;20061;-60
2022/02/12 09:52:00;;;;;;;23.45;7.38;;;;;;;;;;5042600;28;20041;-60
2022/02/12 09:54:27;;;;;;;19.05;6.85;;;;;;;;;;5043254;28;20056;-60
2022/02/12 09:56:53;;;;;;;26.10;8.05;;;;;;;;;;5042499;28;20036;-59
2022/02/12 09:59:19;;;;;;;26.02;6.18;;;;;;;;;;5043307;28;20079;-60
2022/02/12 10:01:45;;;;;;;18.17;6.78;;;;;;;;;;5043913;28;20056;-60
2022/02/12 10:04:15;;;;;;;19.83;6.00;;;;;;;;;;5039936;28;20029;-61
2022/02/12 10:06:42;;;;;;;17.27;6.43;;;;;;;;;;5065316;28;20050;-60
2022/02/12 10:09:09;;;;;;;21.83;6.53;;;;;;;;;;5039216;28;20033;-59
2022/02/12 10:11:39;;;;;;;20.40;6.10;;;;;;;;;;5049344;28;20048;-59
2022/02/12 10:14:09;;;;;;;22.05;6.07;;;;;;;;;;5040362;28;20041;-60
2022/02/12 10:16:49;;;;;;;19.38;7.53;;;;;;;;;;5045949;28;20512;-60
2022/02/12 10:19:15;;;;;;;17.70;5.65;;;;;;;;;;5042422;28;20068;-60
2022/02/12 10:21:41;;;;;;;21.20;6.53;;;;;;;;;;5046417;28;20037;-60
2022/02/12 10:24:08;;;;;;;17.13;5.70;;;;;;;;;;5048994;28;20036;-60
2022/02/12 10:26:39;;;;;;;19.83;6.90;;;;;;;;;;5046169;28;20041;-60
2022/02/12 10:29:05;;;;;;;15.80;5.35;;;;;;;;;;5051470;28;20480;-60
2022/02/12 10:31:32;;;;;;;19.20;5.32;;;;;;;;;;5058206;28;20059;-60
2022/02/12 10:33:58;;;;;;;19.20;5.85;;;;;;;;;;5055773;28;20076;-60
2022/02/12 10:36:26;;;;;;;16.40;4.45;;;;;;;;;;5031760;28;20033;-61
2022/02/12 10:38:53;;;;;;;16.73;4.95;;;;;;;;;;5039381;28;20382;-61
2022/02/12 10:41:20;;;;;;;16.77;4.63;;;;;;;;;;5043969;28;20048;-61
2022/02/12 10:43:49;;;;;;;14.75;5.50;;;;;;;;;;5031658;28;20033;-59
2022/02/12 10:46:15;;;;;;;19.17;5.43;;;;;;;;;;5033109;28;20404;-60
2022/02/12 10:48:42;;;;;;;16.17;4.80;;;;;;;;;;5037307;28;20126;-61
2022/02/12 10:51:11;;;;;;;16.05;4.85;;;;;;;;;;5034389;28;20045;-60
2022/02/12 10:53:38;;;;;;;18.52;6.10;;;;;;;;;;5038092;28;20053;-60
2022/02/12 10:56:05;;;;;;;20.00;5.93;;;;;;;;;;5035754;28;20136;-60
2022/02/12 10:58:32;;;;;;;16.33;5.63;;;;;;;;;;5053692;28;21837;-60
2022/02/12 11:00:58;;;;;;;22.38;5.95;;;;;;;;;;5044978;28;20090;-60
2022/02/12 11:03:25;;;;;;;14.90;5.63;;;;;;;;;;5040569;28;20524;-60
2022/02/12 11:05:52;;;;;;;19.38;4.55;;;;;;;;;;5038741;28;20448;-60
2022/02/12 11:08:23;;;;;;;18.08;4.78;;;;;;;;;;5072048;28;20045;-61
2022/02/12 11:10:49;;;;;;;16.65;6.93;;;;;;;;;;5046794;28;20052;-61
2022/02/12 11:13:16;;;;;;;19.50;5.25;;;;;;;;;;5043502;28;20492;-60
2022/02/12 11:15:42;;;;;;;18.40;5.05;;;;;;;;;;5040691;28;20485;-61
2022/02/12 11:18:11;;;;;;;14.70;4.75;;;;;;;;;;5076792;28;20049;-60
2022/02/12 11:20:38;;;;;;;18.35;5.00;;;;;;;;;;5045558;28;20511;-60
2022/02/12 11:23:30;;;;;;;15.52;4.88;;;;;;;;;;5045680;28;20120;-60
2022/02/12 11:26:02;;;;;;;14.70;4.80;;;;;;;;;;5042269;28;20103;-61
2022/02/12 11:28:30;;;;;;;20.52;5.40;;;;;;;;;;5040105;28;20033;-60
2022/02/12 11:31:17;;;;;;;20.88;5.82;;;;;;;;;;5041842;28;20073;-59
2022/02/12 11:34:17;;;;;;;16.33;4.05;;;;;;;;;;5043655;28;20076;-60
2022/02/12 11:36:45;;;;;;;14.90;5.45;;;;;;;;;;5043449;28;20049;-60
2022/02/12 11:39:13;;;;;;;15.23;4.88;;;;;;;;;;5035777;28;20583;-59
2022/02/12 11:41:40;;;;;;;17.08;5.03;;;;;;;;;;5043370;28;20754;-59
2022/02/12 11:44:07;;;;;;;17.08;5.05;;;;;;;;;;5073578;28;20037;-60
2022/02/12 11:46:42;;;;;;;14.15;4.30;;;;;;;;;;5041868;28;20045;-60
2022/02/12 11:49:29;;;;;;;19.42;4.20;;;;;;;;;;5048090;28;20041;-60
2022/02/12 11:51:56;;;;;;;18.23;4.47;;;;;;;;;;5039184;28;20455;-59
2022/02/12 11:54:41;;;;;;;18.40;4.40;;;;;;;;;;5042372;28;20517;-60
2022/02/12 11:57:07;;;;;;;18.20;5.75;;;;;;;;;;5041533;28;20041;-60
2022/02/12 11:59:33;;;;;;;16.35;4.93;;;;;;;;;;5045736;28;20091;-60
2022/02/12 12:02:00;;;;;;;12.60;4.13;;;;;;;;;;5047069;28;20490;-60
2022/02/12 12:04:30;;;;;;;21.27;5.13;;;;;;;;;;5042891;28;20110;-60
2022/02/12 12:07:01;;;;;;;14.13;4.65;;;;;;;;;;5049495;28;20051;-60
2022/02/12 12:09:31;;;;;;;11.75;4.45;;;;;;;;;;5039629;28;20053;-62
2022/02/12 12:12:12;;;;;;;15.50;4.88;;;;;;;;;;5040059;28;20048;-61
2022/02/12 12:14:39;;;;;;;15.40;4.25;;;;;;;;;;5043231;28;20037;-60
2022/02/12 12:17:05;;;;;;;22.60;5.22;;;;;;;;;;5044368;28;20044;-62
2022/02/12 12:19:32;;;;;;;17.23;5.63;;;;;;;;;;5040168;28;20063;-60
2022/02/12 12:22:00;;;;;;;18.08;6.60;;;;;;;;;;5043717;28;20110;-60
2022/02/12 12:24:26;;;;;;;16.33;4.38;;;;;;;;;;5042333;28;20436;-61
2022/02/12 12:26:52;;;;;;;19.27;4.68;;;;;;;;;;5042091;28;20042;-60
2022/02/12 12:32:07;;;;;;;18.90;4.25;;;;;;;;;;5039323;28;20488;-61
2022/02/12 12:34:33;;;;;;;12.95;4.43;;;;;;;;;;5042505;28;20051;-60
2022/02/12 12:37:01;;;;;;;13.85;4.63;;;;;;;;;;5040303;28;20162;-60
2022/02/12 12:39:32;;;;;;;13.45;4.57;;;;;;;;;;5041140;28;20103;-61
2022/02/12 12:41:59;;;;;;;12.13;5.20;;;;;;;;;;5039153;28;20120;-60
2022/02/12 12:44:27;;;;;;;16.33;4.50;;;;;;;;;;5076296;28;20049;-60
2022/02/12 12:46:54;;;;;;;12.95;4.15;;;;;;;;;;5040898;28;20045;-61
2022/02/12 12:49:27;;;;;;;13.43;4.13;;;;;;;;;;5037116;28;20098;-60
2022/02/12 12:51:53;;;;;;;12.45;3.60;;;;;;;;;;5040412;28;20396;-62
2022/02/12 12:54:29;;;;;;;17.75;4.72;;;;;;;;;;5042096;28;20050;-60
2022/02/12 12:56:56;;;;;;;12.60;3.83;;;;;;;;;;5039194;28;20049;-60
2022/02/12 12:59:23;;;;;;;11.80;3.58;;;;;;;;;;5039472;28;20048;-60
2022/02/12 13:01:56;;;;;;;10.98;3.95;;;;;;;;;;5041138;28;20508;-61
2022/02/12 13:04:22;;;;;;;10.23;3.87;;;;;;;;;;5040799;28;20040;-60
2022/02/12 13:06:51;;;;;;;15.35;3.97;;;;;;;;;;5038310;28;20064;-60
2022/02/12 13:09:18;;;;;;;12.15;3.58;;;;;;;;;;5054942;28;20044;-60
2022/02/12 13:11:44;;;;;;;18.77;4.70;;;;;;;;;;5041829;28;20056;-66
2022/02/12 13:14:10;;;;;;;17.65;4.05;;;;;;;;;;5043600;28;20053;-61
2022/02/12 13:16:37;;;;;;;13.73;3.70;;;;;;;;;;5037087;28;20079;-61
2022/02/12 13:19:05;;;;;;;9.98;3.38;;;;;;;;;;5038593;28;20052;-61
2022/02/12 13:21:31;;;;;;;10.73;3.33;;;;;;;;;;5040663;28;20053;-62
2022/02/12 13:24:03;;;;;;;10.43;3.75;;;;;;;;;;5040077;28;20460;-61
2022/02/12 13:26:31;;;;;;;11.88;3.22;;;;;;;;;;5040982;28;20047;-61
2022/02/12 13:28:57;;;;;;;13.70;3.80;;;;;;;;;;5038384;28;20438;-61
2022/02/12 13:31:26;;;;;;;10.60;3.20;;;;;;;;;;5039163;28;20040;-60
2022/02/12 13:33:58;;;;;;;12.95;3.00;;;;;;;;;;5044340;28;20033;-61
2022/02/12 13:36:24;;;;;;;10.75;3.67;;;;;;;;;;5039677;28;20056;-61
2022/02/12 13:38:50;;;;;;;11.70;3.63;;;;;;;;;;5039650;28;20481;-61
2022/02/12 13:41:16;;;;;;;9.07;3.70;;;;;;;;;;5041238;28;20043;-61
2022/02/12 13:43:45;;;;;;;17.23;4.07;;;;;;;;;;5041229;28;20148;-62
2022/02/12 13:46:11;;;;;;;20.20;3.63;;;;;;;;;;5041212;28;20046;-61
2022/02/12 13:48:43;;;;;;;11.90;4.00;;;;;;;;;;5040520;28;20491;-61
2022/02/12 13:51:12;;;;;;;14.15;4.00;;;;;;;;;;5041977;28;20080;-61
2022/02/12 13:53:46;;;;;;;14.05;3.92;;;;;;;;;;5039439;28;20053;-61
2022/02/12 13:56:13;;;;;;;14.65;4.07;;;;;;;;;;5043890;28;20057;-61
2022/02/12 13:58:40;;;;;;;13.45;3.90;;;;;;;;;;5039903;28;20049;-61
2022/02/12 14:01:08;;;;;;;11.50;3.10;;;;;;;;;;5039269;28;20073;-62
2022/02/12 14:03:36;;;;;;;15.13;3.42;;;;;;;;;;5041122;28;20053;-64
2022/02/12 14:06:03;;;;;;;9.40;3.45;;;;;;;;;;5045369;28;20521;-61
2022/02/12 14:08:30;;;;;;;10.68;3.28;;;;;;;;;;5036094;28;20461;-61
2022/02/12 14:10:56;;;;;;;11.48;3.35;;;;;;;;;;5038800;28;20091;-61
2022/02/12 14:13:22;;;;;;;24.98;5.20;;;;;;;;;;5039691;28;20235;-61
2022/02/12 14:15:48;;;;;;;10.23;3.13;;;;;;;;;;5039464;28;20491;-61
2022/02/12 14:18:15;;;;;;;10.20;3.20;;;;;;;;;;5038997;28;20511;-61
2022/02/12 14:20:42;;;;;;;10.88;3.17;;;;;;;;;;5040844;28;20400;-62
2022/02/12 14:23:09;;;;;;;10.15;3.17;;;;;;;;;;5042738;28;20037;-61
2022/02/12 14:25:36;;;;;;;10.90;3.63;;;;;;;;;;5044090;28;20088;-61
2022/02/12 14:28:03;;;;;;;13.70;3.00;;;;;;;;;;5040028;28;20195;-61
2022/02/12 14:30:29;;;;;;;13.18;2.97;;;;;;;;;;5041094;28;20056;-61
2022/02/12 14:32:55;;;;;;;12.00;3.10;;;;;;;;;;5039347;28;20126;-61
2022/02/12 14:35:22;;;;;;;16.73;4.43;;;;;;;;;;5038981;28;20114;-61
2022/02/12 14:37:48;;;;;;;13.35;3.38;;;;;;;;;;5037384;28;20040;-61
2022/02/12 14:40:18;;;;;;;9.05;3.28;;;;;;;;;;5038303;28;20052;-61
2022/02/12 14:42:44;;;;;;;11.32;3.10;;;;;;;;;;5040007;28;20044;-62